createdAt,value
2023-02-09T00:01:35.891Z,0.24
2023-02-09T00:04:06.281Z,0.18
2023-02-09T00:06:36.417Z,0.17
2023-02-09T00:09:06.595Z,0.21
2023-02-09T00:11:51.716Z,0.28
2023-02-09T00:14:22.900Z,0.24
2023-02-09T00:16:53.847Z,0.23
2023-02-09T00:19:24.654Z,0.18
2023-02-09T00:21:55.692Z,0.19
2023-02-09T00:24:26.102Z,0.25
2023-02-09T00:27:01.646Z,0.22
2023-02-09T00:29:31.887Z,0.20
2023-02-09T00:32:02.089Z,0.20
2023-02-09T00:34:32.625Z,0.25
2023-02-09T00:37:04.351Z,0.20
2023-02-09T00:39:34.607Z,0.16
2023-02-09T00:42:11.358Z,0.18
2023-02-09T00:44:42.819Z,0.12
2023-02-09T00:47:13.192Z,0.11
2023-02-09T00:49:52.438Z,0.08
2023-02-09T00:52:22.630Z,-0.07
2023-02-09T00:54:52.752Z,-0.12
2023-02-09T00:57:25.495Z,-0.14
2023-02-09T00:59:55.577Z,-0.19
2023-02-09T01:02:25.766Z,-0.19
2023-02-09T01:04:56.554Z,-0.28
2023-02-09T01:07:26.727Z,-0.30
2023-02-09T01:09:56.860Z,-0.27
2023-02-09T01:12:29.932Z,-0.29
2023-02-09T01:15:01.984Z,-0.29
2023-02-09T01:17:32.261Z,-0.26
2023-02-09T01:20:04.920Z,-0.26
2023-02-09T01:22:35.113Z,-0.29
2023-02-09T01:25:05.454Z,-0.31
2023-02-09T01:27:39.291Z,-0.41
2023-02-09T01:30:10.749Z,-0.41
2023-02-09T01:32:40.884Z,-0.41
2023-02-09T01:35:11.707Z,-0.36
2023-02-09T01:37:42.041Z,-0.38
2023-02-09T01:40:14.081Z,-0.45
2023-02-09T01:42:46.852Z,-0.41
2023-02-09T01:45:31.527Z,-0.35
2023-02-09T01:48:04.288Z,-0.32
2023-02-09T01:50:38.084Z,-0.27
2023-02-09T01:53:09.841Z,-0.29
2023-02-09T01:55:45.076Z,-0.42
2023-02-09T01:58:21.656Z,-0.40
2023-02-09T02:00:52.718Z,-0.43
2023-02-09T02:03:26.115Z,-0.47
2023-02-09T02:06:00.722Z,-0.57
2023-02-09T02:08:37.087Z,-0.53
2023-02-09T02:11:08.122Z,-0.68
2023-02-09T02:13:41.134Z,-0.75
2023-02-09T02:16:28.537Z,-0.77
2023-02-09T02:19:16.876Z,-0.78
2023-02-09T02:22:14.197Z,-0.78
2023-02-09T02:25:26.958Z,-0.84
2023-02-09T02:28:23.394Z,-0.90
2023-02-09T02:31:17.794Z,-0.89
2023-02-09T02:34:00.825Z,-0.89
2023-02-09T02:36:38.621Z,-0.89
2023-02-09T02:39:25.335Z,-0.87
2023-02-09T02:42:16.541Z,-0.88
2023-02-09T02:44:56.065Z,-0.91
2023-02-09T02:47:27.548Z,-1.01
2023-02-09T02:50:03.782Z,-1.00
2023-02-09T02:52:34.244Z,-1.11
2023-02-09T02:55:08.310Z,-1.20
2023-02-09T02:57:41.054Z,-1.15
2023-02-09T03:00:19.529Z,-1.16
2023-02-09T03:02:53.688Z,-1.14
2023-02-09T03:05:27.766Z,-1.23
2023-02-09T03:07:57.957Z,-1.21
2023-02-09T03:10:32.719Z,-1.17
2023-02-09T03:13:16.813Z,-1.17
2023-02-09T03:16:06.635Z,-1.09
2023-02-09T03:18:46.674Z,-1.16
2023-02-09T03:21:27.752Z,-1.15
2023-02-09T03:24:04.216Z,-1.12
2023-02-09T03:26:41.817Z,-1.08
2023-02-09T03:29:13.382Z,-1.11
2023-02-09T03:31:44.094Z,-1.07
2023-02-09T03:34:14.254Z,-1.18
2023-02-09T03:36:53.206Z,-1.28
2023-02-09T03:39:23.206Z,-1.28
2023-02-09T03:41:53.201Z,-1.31
2023-02-09T03:44:29.269Z,-1.31
2023-02-09T03:47:01.276Z,-1.26
2023-02-09T03:49:35.219Z,-1.37
2023-02-09T03:52:09.735Z,-1.38
2023-02-09T03:54:39.985Z,-1.39
2023-02-09T03:57:10.857Z,-1.36
2023-02-09T03:59:41.422Z,-1.31
2023-02-09T04:02:12.799Z,-1.37
2023-02-09T04:04:43.264Z,-1.32
2023-02-09T04:07:16.212Z,-1.35
2023-02-09T04:09:46.302Z,-1.34
2023-02-09T04:12:16.428Z,-1.37
2023-02-09T04:14:46.489Z,-1.39
2023-02-09T04:17:16.647Z,-1.37
2023-02-09T04:19:46.746Z,-1.33
2023-02-09T04:22:19.467Z,-1.38
2023-02-09T04:24:49.482Z,-1.43
2023-02-09T04:27:19.425Z,-1.36
2023-02-09T04:29:49.565Z,-1.41
2023-02-09T04:32:19.617Z,-1.43
2023-02-09T04:34:51.698Z,-1.45
2023-02-09T04:37:24.536Z,-1.41
2023-02-09T04:39:54.481Z,-1.43
2023-02-09T04:42:24.876Z,-1.36
2023-02-09T04:44:54.860Z,-1.36
2023-02-09T04:47:24.797Z,-1.36
2023-02-09T04:49:54.789Z,-1.43
2023-02-09T04:52:27.535Z,-1.42
2023-02-09T04:54:57.610Z,-1.40
2023-02-09T04:57:39.938Z,-1.40
2023-02-09T05:00:11.988Z,-1.42
2023-02-09T05:02:41.965Z,-1.43
2023-02-09T05:05:12.103Z,-1.44
2023-02-09T05:07:44.780Z,-1.46
2023-02-09T05:10:14.758Z,-1.39
2023-02-09T05:12:44.913Z,-1.38
2023-02-09T05:15:14.963Z,-1.35
2023-02-09T05:17:45.001Z,-1.40
2023-02-09T05:20:15.113Z,-1.39
2023-02-09T05:22:49.319Z,-1.45
2023-02-09T05:25:20.229Z,-1.53
2023-02-09T05:27:50.555Z,-1.59
2023-02-09T05:30:21.209Z,-1.54
2023-02-09T05:32:51.717Z,-1.58
2023-02-09T05:35:22.065Z,-1.61
2023-02-09T05:37:54.926Z,-1.66
2023-02-09T05:40:24.987Z,-1.63
2023-02-09T05:42:55.159Z,-1.63
2023-02-09T05:45:26.233Z,-1.64
2023-02-09T05:47:56.463Z,-1.62
2023-02-09T05:50:26.641Z,-1.67
2023-02-09T05:53:01.644Z,-1.75
2023-02-09T05:55:31.662Z,-1.72
2023-02-09T05:58:01.667Z,-1.75
2023-02-09T06:00:32.301Z,-1.72
2023-02-09T06:03:02.674Z,-1.72
2023-02-09T06:05:32.691Z,-1.78
2023-02-09T06:08:05.325Z,-1.81
2023-02-09T06:10:35.295Z,-1.78
2023-02-09T06:13:07.981Z,-1.79
2023-02-09T06:15:39.616Z,-1.80
2023-02-09T06:18:09.690Z,-1.82
2023-02-09T06:20:39.937Z,-1.86
2023-02-09T06:23:12.513Z,-1.90
2023-02-09T06:25:42.787Z,-1.91
2023-02-09T06:28:12.883Z,-1.89
2023-02-09T06:30:43.252Z,-1.95
2023-02-09T06:33:13.377Z,-1.92
2023-02-09T06:35:43.552Z,-1.96
2023-02-09T06:38:16.413Z,-2.02
2023-02-09T06:40:46.902Z,-2.01
2023-02-09T06:43:17.129Z,-1.95
2023-02-09T06:45:47.414Z,-1.88
2023-02-09T06:48:17.532Z,-1.84
2023-02-09T06:50:50.722Z,-1.81
2023-02-09T06:53:25.529Z,-1.67
2023-02-09T06:55:55.640Z,-1.42
2023-02-09T06:58:25.821Z,-1.27
2023-02-09T07:00:56.044Z,-1.11
2023-02-09T07:03:26.027Z,-0.88
2023-02-09T07:05:56.255Z,-0.75
2023-02-09T07:08:28.853Z,-0.50
2023-02-09T07:10:58.971Z,-0.34
2023-02-09T07:13:28.914Z,0.05
2023-02-09T07:16:02.047Z,0.49
2023-02-09T07:18:32.512Z,0.93
2023-02-09T07:21:04.656Z,1.23
2023-02-09T07:23:39.343Z,1.50
2023-02-09T07:26:16.150Z,1.81
2023-02-09T07:28:46.384Z,2.20
2023-02-09T07:31:18.900Z,2.55
2023-02-09T07:33:49.657Z,2.84
2023-02-09T07:36:19.861Z,3.32
2023-02-09T07:38:52.763Z,3.65
2023-02-09T07:41:25.316Z,3.91
2023-02-09T07:43:55.949Z,3.98
2023-02-09T07:46:26.429Z,4.17
2023-02-09T07:48:59.488Z,4.57
2023-02-09T07:51:33.469Z,4.84
2023-02-09T07:54:09.047Z,5.12
2023-02-09T07:56:40.746Z,5.30
2023-02-09T07:59:11.202Z,5.44
2023-02-09T08:01:41.678Z,5.57
2023-02-09T08:04:11.953Z,5.68
2023-02-09T08:06:45.292Z,5.87
2023-02-09T08:09:19.471Z,5.97
2023-02-09T08:11:56.478Z,5.96
2023-02-09T08:14:29.741Z,6.03
2023-02-09T08:17:18.306Z,6.02
2023-02-09T08:19:49.376Z,6.25
2023-02-09T08:22:19.914Z,6.35
2023-02-09T08:24:52.785Z,6.61
2023-02-09T08:27:24.232Z,6.88
2023-02-09T08:29:54.968Z,6.98
2023-02-09T08:32:25.581Z,6.76
2023-02-09T08:34:55.643Z,6.73
2023-02-09T08:37:25.735Z,6.47
2023-02-09T08:39:58.540Z,6.59
2023-02-09T08:42:28.645Z,6.61
2023-02-09T08:44:58.840Z,6.77
2023-02-09T08:47:28.886Z,7.22
2023-02-09T08:49:59.365Z,7.77
2023-02-09T08:52:29.650Z,7.82
2023-02-09T08:55:02.609Z,8.02
2023-02-09T08:57:43.483Z,8.06
2023-02-09T09:00:15.856Z,7.92
2023-02-09T09:02:45.900Z,8.08
2023-02-09T09:05:15.982Z,8.09
2023-02-09T09:07:45.992Z,7.95
2023-02-09T09:10:18.803Z,7.98
2023-02-09T09:12:48.806Z,8.25
2023-02-09T09:15:22.233Z,8.48
2023-02-09T09:17:54.366Z,8.63
2023-02-09T09:20:24.444Z,8.97
2023-02-09T09:22:54.500Z,8.70
2023-02-09T09:25:27.152Z,8.70
2023-02-09T09:27:57.208Z,8.77
2023-02-09T09:30:27.259Z,9.06
2023-02-09T09:32:57.517Z,9.16
2023-02-09T09:35:27.936Z,9.12
2023-02-09T09:37:58.758Z,9.06
2023-02-09T09:40:35.123Z,9.02
2023-02-09T09:43:08.639Z,9.17
2023-02-09T09:45:42.256Z,9.57
2023-02-09T09:48:24.926Z,9.61
2023-02-09T09:50:57.089Z,9.17
2023-02-09T09:53:33.414Z,9.09
2023-02-09T09:56:09.324Z,9.18
2023-02-09T09:58:44.357Z,9.20
2023-02-09T10:01:16.576Z,9.78
2023-02-09T10:03:47.048Z,10.20
2023-02-09T10:06:19.994Z,9.89
2023-02-09T10:08:55.436Z,9.50
2023-02-09T10:11:36.345Z,9.23
2023-02-09T10:14:07.018Z,9.27
2023-02-09T10:16:38.382Z,9.59
2023-02-09T10:19:19.469Z,9.60
2023-02-09T10:21:49.945Z,10.03
2023-02-09T10:24:25.740Z,10.50
2023-02-09T10:27:12.172Z,10.69
2023-02-09T10:29:42.719Z,10.72
2023-02-09T10:32:19.726Z,11.01
2023-02-09T10:34:52.254Z,11.06
2023-02-09T10:37:30.761Z,11.23
2023-02-09T10:40:17.190Z,11.50
2023-02-09T10:42:58.821Z,11.66
2023-02-09T10:45:31.703Z,11.30
2023-02-09T10:48:03.594Z,10.87
2023-02-09T10:50:33.608Z,11.07
2023-02-09T10:53:06.386Z,11.65
2023-02-09T10:55:40.071Z,12.27
2023-02-09T10:58:19.970Z,12.73
2023-02-09T11:00:56.686Z,12.75
2023-02-09T11:03:29.197Z,12.55
2023-02-09T11:06:05.047Z,12.74
2023-02-09T11:08:46.641Z,12.91
2023-02-09T11:11:30.328Z,12.72
2023-02-09T11:14:03.744Z,12.72
2023-02-09T11:16:58.713Z,13.22
2023-02-09T11:19:44.982Z,13.42
2023-02-09T11:22:21.463Z,13.53
2023-02-09T11:25:05.020Z,13.43
2023-02-09T11:27:46.439Z,13.70
2023-02-09T11:30:41.424Z,13.59
2023-02-09T11:33:20.606Z,13.68
2023-02-09T11:36:09.422Z,13.89
2023-02-09T11:38:46.800Z,14.08
2023-02-09T11:41:42.504Z,14.28
2023-02-09T11:44:20.220Z,13.71
2023-02-09T11:46:56.976Z,13.69
2023-02-09T11:49:29.934Z,13.32
2023-02-09T11:52:02.012Z,13.42
2023-02-09T11:54:36.599Z,13.43
2023-02-09T11:57:22.143Z,14.12
2023-02-09T12:00:00.915Z,14.82
2023-02-09T12:02:46.382Z,16.10
2023-02-09T12:05:21.492Z,16.43
2023-02-09T12:08:10.382Z,16.22
2023-02-09T12:10:46.061Z,16.27
2023-02-09T12:13:30.516Z,16.91
2023-02-09T12:16:05.767Z,17.29
2023-02-09T12:18:39.637Z,17.01
2023-02-09T12:21:10.745Z,16.52
2023-02-09T12:23:42.397Z,16.32
2023-02-09T12:26:39.308Z,16.22
2023-02-09T12:29:28.051Z,16.42
2023-02-09T12:32:30.856Z,16.58
2023-02-09T12:35:30.665Z,16.36
2023-02-09T12:38:16.966Z,16.67
2023-02-09T12:41:03.289Z,17.27
2023-02-09T12:43:34.393Z,17.29
2023-02-09T12:46:23.960Z,16.94
2023-02-09T12:49:10.178Z,16.45
2023-02-09T12:51:54.370Z,15.22
2023-02-09T12:54:46.970Z,13.36
2023-02-09T12:57:55.927Z,12.91
2023-02-09T13:00:34.472Z,13.61
2023-02-09T13:03:17.251Z,14.43
2023-02-09T13:05:48.800Z,13.99
2023-02-09T13:08:28.792Z,13.16
2023-02-09T13:11:04.396Z,12.97
2023-02-09T13:13:45.686Z,13.18
2023-02-09T13:16:41.609Z,13.43
2023-02-09T13:19:26.775Z,13.16
2023-02-09T13:22:07.596Z,12.93
2023-02-09T13:24:47.709Z,12.66
2023-02-09T13:27:21.599Z,12.91
2023-02-09T13:29:53.483Z,13.09
2023-02-09T13:32:37.760Z,12.52
2023-02-09T13:35:18.960Z,12.50
2023-02-09T13:37:50.512Z,12.60
2023-02-09T13:40:27.454Z,12.94
2023-02-09T13:43:05.903Z,14.35
2023-02-09T13:45:35.987Z,14.59
2023-02-09T13:48:09.125Z,13.79
2023-02-09T13:50:39.824Z,12.90
2023-02-09T13:53:14.114Z,12.45
2023-02-09T13:55:50.024Z,12.36
2023-02-09T13:58:23.671Z,12.68
2023-02-09T14:00:56.651Z,12.17
2023-02-09T14:03:30.890Z,11.18
2023-02-09T14:06:06.583Z,10.58
2023-02-09T14:08:40.243Z,10.00
2023-02-09T14:11:41.434Z,9.65
2023-02-09T14:14:16.127Z,9.15
2023-02-09T14:16:53.884Z,8.85
2023-02-09T14:19:29.614Z,8.60
2023-02-09T14:21:59.766Z,8.48
2023-02-09T14:24:30.576Z,8.40
2023-02-09T14:27:20.587Z,8.48
2023-02-09T14:29:55.000Z,8.37
2023-02-09T14:32:36.739Z,7.98
2023-02-09T14:35:21.111Z,7.84
2023-02-09T14:37:52.473Z,7.69
2023-02-09T14:40:34.025Z,7.45
2023-02-09T14:43:25.065Z,7.09
2023-02-09T14:46:02.658Z,7.08
2023-02-09T14:48:34.130Z,7.13
2023-02-09T14:51:12.899Z,7.34
2023-02-09T14:53:46.180Z,7.40
2023-02-09T14:56:27.341Z,7.44
2023-02-09T14:59:03.750Z,7.30
2023-02-09T15:01:33.755Z,7.01
2023-02-09T15:04:03.935Z,6.92
2023-02-09T15:06:35.599Z,6.82
2023-02-09T15:09:06.819Z,6.67
2023-02-09T15:11:52.145Z,6.51
2023-02-09T15:14:28.692Z,6.40
2023-02-09T15:16:59.636Z,6.41
2023-02-09T15:19:32.452Z,6.37
2023-02-09T15:22:07.744Z,6.25
2023-02-09T15:24:38.334Z,6.15
2023-02-09T15:27:08.365Z,6.04
2023-02-09T15:29:40.992Z,5.90
2023-02-09T15:32:17.122Z,5.80
2023-02-09T15:34:47.610Z,5.55
2023-02-09T15:37:23.813Z,5.40
2023-02-09T15:39:57.105Z,5.37
2023-02-09T15:42:39.707Z,5.24
2023-02-09T15:45:30.705Z,5.21
2023-02-09T15:48:00.736Z,5.02
2023-02-09T15:50:32.911Z,5.02
2023-02-09T15:53:05.253Z,5.01
2023-02-09T15:55:35.923Z,4.97
2023-02-09T15:58:07.051Z,5.03
2023-02-09T16:00:39.722Z,5.08
2023-02-09T16:03:16.701Z,4.96
2023-02-09T16:05:48.528Z,4.82
2023-02-09T16:08:25.088Z,4.68
2023-02-09T16:10:55.666Z,4.62
2023-02-09T16:13:26.738Z,4.64
2023-02-09T16:16:14.778Z,4.60
2023-02-09T16:18:46.548Z,4.57
2023-02-09T16:21:23.460Z,4.55
2023-02-09T16:23:54.711Z,4.46
2023-02-09T16:26:25.762Z,4.39
2023-02-09T16:28:55.955Z,4.35
2023-02-09T16:31:28.721Z,4.36
2023-02-09T16:34:00.882Z,4.28
2023-02-09T16:36:33.857Z,4.22
2023-02-09T16:39:05.721Z,4.19
2023-02-09T16:41:51.018Z,4.19
2023-02-09T16:44:23.464Z,4.14
2023-02-09T16:46:59.348Z,4.06
2023-02-09T16:49:38.862Z,3.97
2023-02-09T16:52:16.761Z,4.04
2023-02-09T16:54:50.037Z,4.10
2023-02-09T16:57:23.215Z,4.16
2023-02-09T16:59:53.674Z,4.11
2023-02-09T17:02:42.331Z,4.11
2023-02-09T17:05:20.581Z,4.16
2023-02-09T17:07:55.282Z,4.11
2023-02-09T17:10:28.583Z,4.13
2023-02-09T17:12:58.768Z,4.07
2023-02-09T17:15:31.924Z,3.97
2023-02-09T17:18:08.950Z,3.96
2023-02-09T17:20:43.169Z,3.85
2023-02-09T17:23:17.688Z,3.86
2023-02-09T17:25:48.320Z,3.88
2023-02-09T17:28:19.237Z,3.79
2023-02-09T17:30:49.998Z,3.71
2023-02-09T17:33:26.381Z,3.68
2023-02-09T17:36:24.206Z,3.71
2023-02-09T17:38:48.101Z,3.68
2023-02-09T17:41:20.844Z,3.75
2023-02-09T17:43:53.532Z,3.73
2023-02-09T17:46:23.633Z,3.75
2023-02-09T17:48:56.220Z,3.78
2023-02-09T17:51:34.485Z,3.80
2023-02-09T17:54:04.541Z,3.63
2023-02-09T17:56:34.542Z,3.64
2023-02-09T17:59:08.273Z,3.55
2023-02-09T18:01:43.123Z,3.55
2023-02-09T18:04:19.659Z,3.54
2023-02-09T18:06:50.485Z,3.45
2023-02-09T18:09:26.199Z,3.38
2023-02-09T18:12:02.571Z,3.39
2023-02-09T18:14:36.803Z,3.43
2023-02-09T18:17:06.990Z,3.45
2023-02-09T18:19:39.642Z,3.39
2023-02-09T18:22:09.872Z,3.33
2023-02-09T18:24:39.875Z,3.29
2023-02-09T18:27:10.107Z,3.27
2023-02-09T18:29:40.114Z,3.23
2023-02-09T18:32:13.242Z,3.22
2023-02-09T18:34:45.977Z,3.09
2023-02-09T18:37:17.605Z,3.02
2023-02-09T18:39:50.237Z,3.11
2023-02-09T18:42:20.226Z,3.13
2023-02-09T18:44:50.368Z,3.05
2023-02-09T18:47:20.398Z,3.03
2023-02-09T18:49:53.186Z,3.04
2023-02-09T18:52:25.636Z,3.03
2023-02-09T18:55:01.216Z,3.06
2023-02-09T18:57:31.434Z,3.05
2023-02-09T19:00:05.140Z,2.99
2023-02-09T19:02:43.183Z,2.94
2023-02-09T19:05:18.439Z,2.91
2023-02-09T19:07:50.496Z,2.90
2023-02-09T19:10:23.088Z,2.93
2023-02-09T19:12:55.773Z,2.93
2023-02-09T19:15:26.049Z,2.94
2023-02-09T19:17:56.962Z,2.85
2023-02-09T19:20:34.139Z,2.94
2023-02-09T19:23:08.201Z,2.94
2023-02-09T19:25:39.053Z,2.98
2023-02-09T19:28:09.115Z,3.01
2023-02-09T19:30:40.414Z,2.97
2023-02-09T19:33:10.694Z,2.96
2023-02-09T19:35:43.636Z,2.92
2023-02-09T19:38:15.947Z,2.87
2023-02-09T19:40:48.107Z,2.78
2023-02-09T19:43:19.380Z,2.69
2023-02-09T19:46:03.033Z,2.73
2023-02-09T19:48:33.206Z,2.75
2023-02-09T19:51:06.822Z,2.79
2023-02-09T19:53:37.360Z,2.75
2023-02-09T19:56:08.907Z,2.68
2023-02-09T19:58:41.998Z,2.66
2023-02-09T20:01:12.847Z,2.62
2023-02-09T20:03:45.870Z,2.55
2023-02-09T20:06:21.240Z,2.57
2023-02-09T20:08:53.661Z,2.51
2023-02-09T20:11:24.033Z,2.52
2023-02-09T20:13:55.160Z,2.47
2023-02-09T20:16:34.795Z,2.46
2023-02-09T20:19:04.943Z,2.47
2023-02-09T20:21:37.724Z,2.40
2023-02-09T20:24:11.579Z,2.46
2023-02-09T20:26:44.588Z,2.43
2023-02-09T20:29:24.104Z,2.44
2023-02-09T20:31:54.167Z,2.49
2023-02-09T20:34:24.540Z,2.46
2023-02-09T20:36:57.598Z,2.47
2023-02-09T20:39:52.123Z,2.42
2023-02-09T20:45:51.556Z,2.42
2023-02-09T20:48:21.552Z,2.38
2023-02-09T20:50:51.512Z,2.35
2023-02-09T20:53:24.379Z,2.36
2023-02-09T20:55:56.072Z,2.33
2023-02-09T20:58:25.988Z,2.35
2023-02-09T21:00:56.092Z,2.34
2023-02-09T21:03:26.063Z,2.33
2023-02-09T21:05:56.071Z,2.32
2023-02-09T21:08:30.579Z,2.32
2023-02-09T21:11:01.545Z,2.36
2023-02-09T21:13:31.546Z,2.37
2023-02-09T21:16:03.287Z,2.34
2023-02-09T21:18:34.046Z,2.34
2023-02-09T21:21:06.886Z,2.31
2023-02-09T21:23:41.596Z,2.26
2023-02-09T21:26:14.987Z,2.24
2023-02-09T21:28:48.332Z,2.23
2023-02-09T21:31:22.881Z,2.22
2023-02-09T21:33:53.015Z,2.19
2023-02-09T21:36:23.052Z,2.20
2023-02-09T21:38:55.703Z,2.19
2023-02-09T21:41:40.274Z,2.16
2023-02-09T21:44:12.612Z,2.14
2023-02-09T21:46:42.669Z,2.13
2023-02-09T21:49:14.858Z,2.08
2023-02-09T21:51:45.272Z,2.12
2023-02-09T21:54:20.031Z,2.14
2023-02-09T21:56:50.057Z,2.11
2023-02-09T21:59:20.366Z,2.11
2023-02-09T22:01:53.643Z,2.06
2023-02-09T22:04:24.113Z,2.08
2023-02-09T22:06:54.623Z,2.07
2023-02-09T22:09:30.219Z,2.04
2023-02-09T22:12:00.001Z,2.03
2023-02-09T22:14:30.083Z,2.04
2023-02-09T22:17:00.610Z,2.06
2023-02-09T22:19:30.744Z,2.09
2023-02-09T22:22:01.624Z,2.16
2023-02-09T22:24:34.920Z,2.15
2023-02-09T22:27:05.290Z,2.17
2023-02-09T22:29:36.071Z,2.24
2023-02-09T22:32:08.571Z,2.34
2023-02-09T22:34:38.770Z,2.44
2023-02-09T22:37:10.449Z,2.49
2023-02-09T22:39:45.016Z,2.55
2023-02-09T22:42:15.005Z,2.55
2023-02-09T22:44:45.660Z,2.63
2023-02-09T22:47:15.653Z,2.69
2023-02-09T22:49:46.985Z,2.78
2023-02-09T22:52:20.544Z,2.85
2023-02-09T22:54:53.481Z,2.85
2023-02-09T22:57:23.578Z,2.89
2023-02-09T22:59:53.647Z,2.97
2023-02-09T23:02:23.758Z,2.97
2023-02-09T23:04:55.147Z,2.98
2023-02-09T23:07:25.510Z,3.00
2023-02-09T23:09:58.064Z,3.08
2023-02-09T23:12:28.012Z,3.19
2023-02-09T23:14:58.245Z,3.25
2023-02-09T23:17:28.203Z,3.29
2023-02-09T23:19:58.192Z,3.36
2023-02-09T23:22:28.337Z,3.34
2023-02-09T23:25:01.822Z,3.38
2023-02-09T23:27:31.859Z,3.39
2023-02-09T23:30:01.854Z,3.41
2023-02-09T23:32:32.073Z,3.50
2023-02-09T23:35:02.367Z,3.56
2023-02-09T23:37:38.499Z,3.54
2023-02-09T23:40:12.542Z,3.58
2023-02-09T23:42:42.498Z,3.60
2023-02-09T23:45:12.997Z,3.67
2023-02-09T23:47:43.128Z,3.75
2023-02-09T23:50:20.519Z,3.86
2023-02-09T23:52:50.992Z,3.94
2023-02-09T23:55:23.705Z,4.07
2023-02-09T23:57:53.677Z,4.13
